Time;durP1;ratioP1;P1;durP2;ratioP2;P2;SDS_P1;SDS_P2;PMS_P1;PMS_P2;Temp;Humidity;BMP_temperature;BMP_pressure;BME280_temperature;BME280_humidity;BME280_pressure;Samples;Min_cycle;Max_cycle;Signal;HPM_P1;HPM_P2
2022/03/14 00:01:54;;;;;;;2.85;1.55;;;13.90;99.90;;;;;;4143980;28;20380;-66
2022/03/14 00:03:58;;;;;;;3.35;1.80;;;13.90;99.90;;;;;;4143774;28;20056;-66
2022/03/14 00:05:59;;;;;;;2.38;1.80;;;13.90;99.90;;;;;;4143041;28;20061;-66
2022/03/14 00:08:00;;;;;;;1.90;1.58;;;13.90;99.90;;;;;;4142971;28;20037;-66
2022/03/14 00:10:05;;;;;;;1.63;1.52;;;13.90;99.90;;;;;;4142940;28;20156;-66
2022/03/14 00:12:07;;;;;;;2.28;1.55;;;13.90;99.90;;;;;;4142670;28;20041;-66
2022/03/14 00:14:08;;;;;;;2.63;1.58;;;13.90;99.90;;;;;;4141906;28;20417;-66
2022/03/14 00:16:09;;;;;;;2.60;2.05;;;13.90;99.90;;;;;;4142908;28;20034;-66
2022/03/14 00:18:10;;;;;;;1.73;1.48;;;13.90;99.90;;;;;;4144605;28;20034;-66
2022/03/14 00:20:13;;;;;;;1.50;1.40;;;13.90;99.90;;;;;;4140839;28;20045;-66
2022/03/14 00:22:17;;;;;;;2.13;1.58;;;13.90;99.90;;;;;;4142948;28;20550;-66
2022/03/14 00:24:18;;;;;;;1.88;1.63;;;13.90;99.90;;;;;;4143299;28;20453;-66
2022/03/14 00:26:19;;;;;;;1.83;1.50;;;13.80;99.90;;;;;;4142542;28;20045;-66
2022/03/14 00:28:20;;;;;;;2.30;1.67;;;13.80;99.90;;;;;;4142843;28;20049;-66
2022/03/14 00:30:22;;;;;;;2.47;1.73;;;13.80;99.90;;;;;;4142437;28;20480;-66
2022/03/14 00:32:23;;;;;;;1.85;1.50;;;13.80;99.90;;;;;;4141564;28;20132;-66
2022/03/14 00:34:24;;;;;;;2.72;1.60;;;13.70;99.90;;;;;;4124784;28;20480;-66
2022/03/14 00:36:25;;;;;;;2.38;1.95;;;13.70;99.90;;;;;;4141862;28;20104;-66
2022/03/14 00:38:26;;;;;;;5.07;3.03;;;13.70;99.90;;;;;;4141536;28;20041;-66
2022/03/14 00:40:26;;;;;;;5.57;3.38;;;13.60;99.90;;;;;;4143423;28;20061;-66
2022/03/14 00:42:27;;;;;;;7.03;3.70;;;13.60;99.90;;;;;;4143643;28;20092;-66
2022/03/14 00:44:27;;;;;;;6.07;3.70;;;13.60;99.90;;;;;;4142864;28;20117;-66
2022/03/14 00:46:28;;;;;;;5.35;3.63;;;13.60;99.90;;;;;;4141407;28;20079;-66
2022/03/14 00:48:32;;;;;;;6.65;3.28;;;13.60;99.90;;;;;;4144084;28;20040;-66
2022/03/14 00:50:33;;;;;;;4.82;3.30;;;13.60;99.90;;;;;;4140774;28;20054;-66
2022/03/14 00:52:33;;;;;;;3.50;2.80;;;13.60;99.90;;;;;;4144492;28;20075;-67
2022/03/14 00:54:34;;;;;;;4.95;3.13;;;13.50;99.90;;;;;;4143317;28;20103;-66
2022/03/14 00:56:35;;;;;;;5.88;3.03;;;13.50;99.90;;;;;;4142292;28;20049;-66
2022/03/14 00:58:36;;;;;;;4.47;2.95;;;13.50;99.90;;;;;;4142597;28;20386;-66
2022/03/14 01:00:36;;;;;;;3.45;2.53;;;13.40;99.90;;;;;;4141131;28;20034;-66
2022/03/14 01:02:37;;;;;;;3.13;2.35;;;13.40;99.90;;;;;;4141257;28;20038;-67
2022/03/14 01:04:37;;;;;;;3.30;2.40;;;13.40;99.90;;;;;;4142298;28;20038;-66
2022/03/14 01:06:38;;;;;;;3.47;2.40;;;13.30;99.90;;;;;;4141582;28;20042;-66
2022/03/14 01:08:40;;;;;;;2.58;2.03;;;13.30;99.90;;;;;;4142574;28;20600;-66
2022/03/14 01:10:40;;;;;;;4.10;2.17;;;13.30;99.90;;;;;;4143591;28;20042;-66
2022/03/14 01:12:41;;;;;;;3.45;1.98;;;13.30;99.90;;;;;;4142396;28;20030;-67
2022/03/14 01:14:43;;;;;;;3.60;2.50;;;13.30;99.90;;;;;;4141716;28;20125;-66
2022/03/14 01:16:44;;;;;;;2.58;2.03;;;13.30;99.90;;;;;;4142680;28;20120;-67
2022/03/14 01:18:44;;;;;;;2.58;1.85;;;13.30;99.90;;;;;;4143122;28;20053;-66
2022/03/14 01:20:45;;;;;;;3.83;1.70;;;13.30;99.90;;;;;;4141424;28;20456;-66
2022/03/14 01:22:46;;;;;;;2.08;1.75;;;13.30;99.90;;;;;;4143312;28;20489;-67
2022/03/14 01:24:46;;;;;;;2.10;1.70;;;13.30;99.90;;;;;;4141966;28;20033;-66
2022/03/14 01:26:47;;;;;;;3.25;2.00;;;13.30;99.90;;;;;;4142230;28;20034;-66
2022/03/14 01:28:48;;;;;;;2.65;1.98;;;13.30;99.90;;;;;;4143474;28;20038;-66
2022/03/14 01:30:48;;;;;;;4.93;2.10;;;13.20;99.90;;;;;;4141655;28;20034;-66
2022/03/14 01:32:49;;;;;;;2.20;1.80;;;13.20;99.90;;;;;;4142617;28;20512;-66
2022/03/14 01:34:50;;;;;;;1.88;1.45;;;13.20;99.90;;;;;;4142919;28;20077;-67
2022/03/14 01:36:50;;;;;;;3.22;2.33;;;13.10;99.90;;;;;;4141472;28;20038;-66
2022/03/14 01:38:51;;;;;;;2.47;1.77;;;13.10;99.90;;;;;;4142333;28;20042;-66
2022/03/14 01:40:52;;;;;;;2.53;2.00;;;13.10;99.90;;;;;;4142218;28;20038;-66
2022/03/14 01:42:53;;;;;;;2.20;1.90;;;13.10;99.90;;;;;;4142407;28;20121;-67
2022/03/14 01:44:53;;;;;;;2.13;1.67;;;13.10;99.90;;;;;;4142984;28;20038;-67
2022/03/14 01:46:54;;;;;;;1.98;1.70;;;13.10;99.90;;;;;;4142822;28;20363;-66
2022/03/14 01:48:56;;;;;;;2.72;2.05;;;13.10;99.90;;;;;;4143300;28;20046;-66
2022/03/14 01:50:57;;;;;;;2.72;2.15;;;13.10;99.90;;;;;;4141376;28;20083;-67
2022/03/14 01:52:57;;;;;;;3.70;2.00;;;13.10;99.90;;;;;;4143621;28;20547;-67
2022/03/14 01:54:58;;;;;;;2.63;1.90;;;13.10;99.90;;;;;;4140640;28;20034;-67
2022/03/14 01:56:59;;;;;;;2.38;1.80;;;13.10;99.90;;;;;;4141922;28;20046;-66
2022/03/14 01:59:00;;;;;;;2.30;2.00;;;13.10;99.90;;;;;;4141985;28;20038;-66
2022/03/14 02:01:01;;;;;;;2.42;1.80;;;13.00;99.90;;;;;;4142740;28;20432;-65
2022/03/14 02:03:02;;;;;;;1.92;1.65;;;13.00;99.90;;;;;;4141846;28;20038;-66
2022/03/14 02:05:03;;;;;;;2.13;1.88;;;13.00;99.90;;;;;;4142701;28;20117;-67
2022/03/14 02:07:04;;;;;;;2.00;1.60;;;13.10;99.90;;;;;;4142321;28;20049;-66
2022/03/14 02:09:04;;;;;;;2.88;2.15;;;13.10;99.90;;;;;;4143291;28;20090;-66
2022/03/14 02:11:05;;;;;;;2.28;1.70;;;13.00;99.90;;;;;;4143078;28;20038;-66
2022/03/14 02:13:08;;;;;;;2.15;1.88;;;13.00;99.90;;;;;;4145195;28;20150;-66
2022/03/14 02:15:11;;;;;;;3.85;2.28;;;13.00;99.90;;;;;;4146047;28;20044;-67
2022/03/14 02:17:14;;;;;;;2.67;1.90;;;13.10;99.90;;;;;;4146127;28;20109;-66
2022/03/14 02:19:15;;;;;;;1.67;1.52;;;13.10;99.90;;;;;;4145981;28;20492;-66
2022/03/14 02:21:16;;;;;;;2.42;1.95;;;13.10;99.90;;;;;;4145597;28;20060;-66
2022/03/14 02:23:17;;;;;;;4.95;2.33;;;13.10;99.90;;;;;;4148702;28;20038;-66
2022/03/14 02:25:18;;;;;;;2.60;1.83;;;13.00;99.90;;;;;;4145238;28;20030;-67
2022/03/14 02:27:19;;;;;;;2.85;2.20;;;13.00;99.90;;;;;;4146358;28;20050;-67
2022/03/14 02:29:20;;;;;;;2.58;1.95;;;13.00;99.90;;;;;;4146368;28;20048;-67
2022/03/14 02:31:20;;;;;;;2.95;2.20;;;12.90;99.90;;;;;;4145614;28;20038;-67
2022/03/14 02:33:21;;;;;;;1.75;1.55;;;12.90;99.90;;;;;;4146097;28;20042;-67
2022/03/14 02:35:21;;;;;;;2.75;1.88;;;12.80;99.90;;;;;;4145556;28;20041;-67
2022/03/14 02:37:22;;;;;;;4.22;2.03;;;12.80;99.90;;;;;;4145922;28;20133;-67
2022/03/14 02:39:24;;;;;;;5.25;2.40;;;12.80;99.90;;;;;;4145978;28;20068;-67
2022/03/14 02:41:25;;;;;;;2.90;1.95;;;12.80;99.90;;;;;;4128052;28;20038;-67
2022/03/14 02:43:26;;;;;;;2.15;1.73;;;12.70;99.90;;;;;;4146053;28;20076;-68
2022/03/14 02:45:26;;;;;;;2.72;2.08;;;12.70;99.90;;;;;;4145249;28;20042;-68
2022/03/14 02:47:27;;;;;;;4.55;2.47;;;12.60;99.90;;;;;;4145990;28;20045;-67
2022/03/14 02:49:28;;;;;;;3.58;2.40;;;12.50;99.90;;;;;;4145154;28;20046;-68
2022/03/14 02:51:28;;;;;;;3.55;2.33;;;12.50;99.90;;;;;;4145327;28;20042;-68
2022/03/14 02:53:29;;;;;;;3.95;2.60;;;12.40;99.90;;;;;;4145311;28;20045;-68
2022/03/14 02:55:30;;;;;;;3.90;2.45;;;12.30;99.90;;;;;;4144769;28;20049;-68
2022/03/14 02:57:31;;;;;;;4.40;2.40;;;12.30;99.90;;;;;;4145233;28;20049;-68
2022/03/14 02:59:33;;;;;;;3.28;2.30;;;12.20;99.90;;;;;;4145408;28;20038;-68
2022/03/14 03:01:34;;;;;;;4.88;2.42;;;12.20;99.90;;;;;;4142405;28;20553;-68
2022/03/14 03:03:35;;;;;;;4.32;2.53;;;12.10;99.90;;;;;;4145636;28;20133;-67
2022/03/14 03:05:37;;;;;;;4.75;2.42;;;12.10;99.90;;;;;;4143865;28;20484;-67
2022/03/14 03:07:39;;;;;;;3.53;2.50;;;12.00;99.90;;;;;;4128295;28;20520;-67
2022/03/14 03:09:40;;;;;;;;;;;11.90;99.90;;;;;;4145874;28;20097;-68
2022/03/14 03:11:41;;;;;;;4.47;2.83;;;11.80;99.90;;;;;;4144792;28;20309;-68
2022/03/14 03:13:42;;;;;;;5.45;2.60;;;11.80;99.90;;;;;;4145570;28;20060;-67
2022/03/14 03:15:43;;;;;;;4.95;2.80;;;11.70;99.90;;;;;;4144776;28;20481;-67
2022/03/14 03:17:43;;;;;;;5.50;3.30;;;11.70;99.90;;;;;;4145518;28;20041;-67
2022/03/14 03:19:44;;;;;;;3.67;3.00;;;11.70;99.90;;;;;;4145294;28;20033;-68
2022/03/14 03:21:45;;;;;;;5.07;3.50;;;11.70;99.90;;;;;;4144360;28;20054;-69
2022/03/14 03:23:45;;;;;;;3.53;2.80;;;11.60;99.90;;;;;;4145215;28;20159;-67
2022/03/14 03:25:46;;;;;;;4.15;2.90;;;11.50;99.90;;;;;;4144678;28;20045;-68
2022/03/14 03:27:47;;;;;;;4.18;2.85;;;11.50;99.90;;;;;;4144995;28;20042;-67
2022/03/14 03:29:47;;;;;;;4.50;2.92;;;11.50;99.90;;;;;;4144534;28;20050;-68
2022/03/14 03:31:48;;;;;;;3.83;3.08;;;11.40;99.90;;;;;;4144731;28;20042;-67
2022/03/14 03:33:50;;;;;;;5.53;3.30;;;11.40;99.90;;;;;;4145495;28;20121;-68
2022/03/14 03:35:51;;;;;;;6.72;3.50;;;11.30;99.90;;;;;;4126598;28;20045;-67
2022/03/14 03:37:51;;;;;;;6.15;3.28;;;11.30;99.90;;;;;;4145029;28;20101;-67
2022/03/14 03:39:52;;;;;;;5.50;3.00;;;11.20;99.90;;;;;;4145261;28;20042;-68
2022/03/14 03:41:53;;;;;;;4.47;3.58;;;11.30;99.90;;;;;;4144570;28;20041;-68
2022/03/14 03:43:53;;;;;;;4.63;2.80;;;11.20;99.90;;;;;;4144993;28;20049;-67
2022/03/14 03:45:54;;;;;;;4.47;3.30;;;11.20;99.90;;;;;;4144437;28;20129;-67
2022/03/14 03:47:54;;;;;;;4.55;3.25;;;11.20;99.90;;;;;;4145070;28;20045;-68
2022/03/14 03:49:56;;;;;;;6.63;3.35;;;11.10;99.90;;;;;;4145450;28;20398;-67
2022/03/14 03:51:57;;;;;;;4.53;3.20;;;11.20;99.90;;;;;;4144490;28;20413;-68
2022/03/14 03:53:58;;;;;;;4.82;3.40;;;11.20;99.90;;;;;;4145589;28;20276;-68
2022/03/14 03:55:58;;;;;;;4.18;3.38;;;11.20;99.90;;;;;;4144399;28;20048;-67
2022/03/14 03:57:59;;;;;;;5.47;3.63;;;11.10;99.90;;;;;;4145316;28;20544;-67
2022/03/14 03:59:59;;;;;;;5.57;3.17;;;11.10;99.90;;;;;;4145270;28;20049;-67
2022/03/14 04:02:02;;;;;;;7.68;3.55;;;11.10;99.90;;;;;;4144472;28;20037;-67
2022/03/14 04:04:03;;;;;;;6.28;3.67;;;11.00;99.90;;;;;;4145508;28;20065;-67
2022/03/14 04:06:04;;;;;;;4.65;3.17;;;11.00;99.90;;;;;;4143940;28;20018;-67
2022/03/14 04:08:09;;;;;;;4.80;3.60;;;11.00;99.90;;;;;;4145171;28;20050;-68
2022/03/14 04:10:14;;;;;;;4.65;3.72;;;11.00;99.90;;;;;;4127006;28;20061;-68
2022/03/14 04:12:14;;;;;;;5.35;3.55;;;10.90;99.90;;;;;;4143655;28;20054;-68
2022/03/14 04:14:15;;;;;;;4.47;3.53;;;10.80;99.90;;;;;;4144831;28;20394;-67
2022/03/14 04:16:18;;;;;;;5.00;3.75;;;10.80;99.90;;;;;;4143941;28;20057;-68
2022/03/14 04:18:20;;;;;;;6.90;4.13;;;10.80;99.90;;;;;;4145317;28;20432;-68
2022/03/14 04:20:22;;;;;;;5.50;3.70;;;10.70;99.90;;;;;;4141863;28;20489;-68
2022/03/14 04:22:23;;;;;;;4.22;3.45;;;10.80;99.90;;;;;;4142601;28;20074;-67
2022/03/14 04:24:24;;;;;;;5.18;3.67;;;10.70;99.90;;;;;;4144992;28;20030;-68
2022/03/14 04:26:24;;;;;;;6.25;3.80;;;10.80;99.90;;;;;;4144143;28;20037;-68
2022/03/14 04:28:25;;;;;;;6.10;3.80;;;10.80;99.90;;;;;;4144817;28;20382;-68
2022/03/14 04:30:25;;;;;;;5.10;3.47;;;10.80;99.90;;;;;;4143996;28;20046;-68
2022/03/14 04:32:27;;;;;;;5.50;3.78;;;10.80;99.90;;;;;;4144774;28;20041;-68
2022/03/14 04:34:28;;;;;;;4.25;3.33;;;10.80;99.90;;;;;;4144650;28;20513;-68
2022/03/14 04:36:29;;;;;;;4.97;3.28;;;10.80;99.90;;;;;;4143191;28;20068;-68
2022/03/14 04:38:29;;;;;;;3.83;3.08;;;10.80;99.90;;;;;;4144974;28;20445;-68
2022/03/14 04:40:32;;;;;;;4.35;3.40;;;10.80;99.90;;;;;;4144264;28;20049;-68
2022/03/14 04:42:32;;;;;;;4.85;3.28;;;10.80;99.90;;;;;;4143531;28;20072;-68
2022/03/14 04:44:34;;;;;;;3.83;3.03;;;10.90;99.90;;;;;;4145513;28;20604;-68
2022/03/14 04:46:35;;;;;;;5.63;3.40;;;10.80;99.90;;;;;;4143507;28;20065;-69
2022/03/14 04:48:36;;;;;;;4.35;3.50;;;10.80;99.90;;;;;;4144545;28;20046;-68
2022/03/14 04:50:36;;;;;;;3.67;3.08;;;10.70;99.90;;;;;;4143282;28;20544;-68
2022/03/14 04:52:37;;;;;;;6.80;3.40;;;10.70;99.90;;;;;;4142529;28;20037;-68
2022/03/14 04:54:39;;;;;;;3.63;2.60;;;10.70;99.90;;;;;;4141666;28;20508;-68
2022/03/14 04:56:40;;;;;;;4.57;2.90;;;10.80;99.90;;;;;;4143956;28;20034;-69
2022/03/14 04:58:40;;;;;;;3.80;2.72;;;10.80;99.90;;;;;;4142442;28;20121;-68
2022/03/14 05:00:44;;;;;;;3.47;2.38;;;10.80;99.90;;;;;;4143663;28;20040;-68
2022/03/14 05:02:44;;;;;;;3.80;2.67;;;10.80;99.90;;;;;;4141584;28;20109;-68
2022/03/14 05:04:45;;;;;;;4.05;2.80;;;10.80;99.90;;;;;;4142901;28;20041;-68
2022/03/14 05:06:45;;;;;;;3.05;2.10;;;10.80;99.90;;;;;;4141714;28;20041;-68
2022/03/14 05:08:46;;;;;;;4.50;2.17;;;10.90;99.90;;;;;;4142183;28;20042;-68
2022/03/14 05:10:48;;;;;;;3.67;2.20;;;10.80;99.90;;;;;;4143751;28;20056;-68
2022/03/14 05:12:49;;;;;;;4.20;1.98;;;10.80;99.90;;;;;;4141283;28;20034;-69
2022/03/14 05:14:51;;;;;;;5.32;2.15;;;10.80;99.90;;;;;;4143545;28;20080;-68
2022/03/14 05:16:51;;;;;;;3.17;1.90;;;10.70;99.90;;;;;;4146443;28;20038;-68
2022/03/14 05:18:52;;;;;;;2.20;1.70;;;10.70;99.90;;;;;;4143864;28;20034;-69
2022/03/14 05:20:53;;;;;;;2.40;1.80;;;10.70;99.90;;;;;;4148300;28;20029;-68
2022/03/14 05:22:53;;;;;;;3.00;2.10;;;10.70;99.90;;;;;;4144327;28;20112;-68
2022/03/14 05:24:54;;;;;;;3.83;2.22;;;10.70;99.90;;;;;;4143579;28;20037;-69
2022/03/14 05:26:57;;;;;;;3.20;2.08;;;10.60;99.90;;;;;;4142177;28;20049;-68
2022/03/14 05:28:58;;;;;;;4.40;2.35;;;10.60;99.90;;;;;;4139558;28;20042;-68
2022/03/14 05:30:58;;;;;;;3.58;2.40;;;10.60;99.90;;;;;;4139124;28;20048;-69
2022/03/14 05:32:59;;;;;;;2.40;1.90;;;10.60;99.90;;;;;;4142602;28;20136;-69
2022/03/14 05:35:00;;;;;;;3.50;2.20;;;10.60;99.90;;;;;;4144608;28;20046;-68
2022/03/14 05:37:01;;;;;;;3.55;2.30;;;10.60;99.90;;;;;;4127882;28;20077;-68
2022/03/14 05:39:02;;;;;;;3.17;2.00;;;10.60;99.90;;;;;;4141963;28;20519;-68
2022/03/14 05:41:03;;;;;;;2.80;1.90;;;10.60;99.90;;;;;;4142580;28;20103;-68
2022/03/14 05:43:08;;;;;;;2.80;2.17;;;10.60;99.90;;;;;;4144188;28;20481;-68
2022/03/14 05:45:09;;;;;;;2.30;1.63;;;10.60;99.90;;;;;;4141722;28;20409;-68
2022/03/14 05:47:10;;;;;;;3.22;2.13;;;10.70;99.90;;;;;;4143085;28;20034;-68
2022/03/14 05:49:11;;;;;;;5.30;2.13;;;10.70;99.90;;;;;;4143730;28;20054;-69
2022/03/14 05:51:11;;;;;;;3.30;2.28;;;10.70;99.90;;;;;;4145654;28;20477;-68
2022/03/14 05:53:12;;;;;;;2.30;1.98;;;10.70;99.90;;;;;;4145651;28;20049;-68
2022/03/14 05:55:13;;;;;;;3.17;2.10;;;10.70;99.90;;;;;;4142343;28;20046;-68
2022/03/14 05:57:14;;;;;;;3.33;2.38;;;10.80;99.90;;;;;;4145008;28;20048;-68
2022/03/14 05:59:14;;;;;;;4.13;1.90;;;10.70;99.90;;;;;;4144620;28;20049;-69
2022/03/14 06:01:15;;;;;;;3.25;2.25;;;10.70;99.90;;;;;;4143956;28;20229;-68
2022/03/14 06:03:15;;;;;;;4.65;2.45;;;10.70;99.90;;;;;;4145812;28;20034;-69
2022/03/14 06:05:19;;;;;;;4.43;2.65;;;10.70;99.90;;;;;;4144819;28;20038;-69
2022/03/14 06:07:21;;;;;;;3.55;2.53;;;10.70;99.90;;;;;;4144495;28;20044;-69
2022/03/14 06:09:25;;;;;;;2.67;2.22;;;10.60;99.90;;;;;;4145309;28;20046;-69
2022/03/14 06:11:27;;;;;;;2.55;2.25;;;10.60;99.90;;;;;;4145395;28;20096;-68
2022/03/14 06:13:28;;;;;;;2.90;2.60;;;10.50;99.90;;;;;;4144043;28;20042;-68
2022/03/14 06:15:28;;;;;;;3.08;2.72;;;10.50;99.90;;;;;;4136143;28;20528;-68
2022/03/14 06:17:29;;;;;;;3.80;2.80;;;10.60;99.90;;;;;;4142816;28;20504;-68
2022/03/14 06:19:29;;;;;;;6.03;3.17;;;10.60;99.90;;;;;;4127999;28;20137;-68
2022/03/14 06:21:32;;;;;;;4.03;2.83;;;10.60;99.90;;;;;;4143714;28;20050;-68
2022/03/14 06:23:32;;;;;;;;;;;10.60;99.90;;;;;;4142145;28;20026;-68
2022/03/14 06:25:36;;;;;;;4.47;3.38;;;10.50;99.90;;;;;;4148494;28;19910;-68
2022/03/14 06:27:37;;;;;;;5.35;3.20;;;10.50;99.90;;;;;;4145000;28;20042;-67
2022/03/14 06:29:38;;;;;;;6.43;3.60;;;10.50;99.90;;;;;;4147262;28;20050;-68
2022/03/14 06:31:38;;;;;;;3.67;3.00;;;10.50;99.90;;;;;;4141596;28;20105;-68
2022/03/14 06:33:39;;;;;;;4.68;3.58;;;10.60;99.90;;;;;;4144788;28;20101;-68
2022/03/14 06:35:40;;;;;;;5.38;3.60;;;10.50;99.90;;;;;;4144867;28;20033;-68
2022/03/14 06:37:43;;;;;;;3.85;3.40;;;10.50;99.90;;;;;;4143861;28;20030;-68
2022/03/14 06:39:44;;;;;;;4.97;3.95;;;10.40;99.90;;;;;;4144227;28;20045;-68
2022/03/14 06:41:45;;;;;;;9.50;4.15;;;10.40;99.90;;;;;;4144515;28;20032;-69
2022/03/14 06:43:46;;;;;;;8.60;4.10;;;10.40;99.90;;;;;;4143621;28;20073;-68
2022/03/14 06:45:47;;;;;;;5.57;3.92;;;10.40;99.90;;;;;;4144611;28;20026;-68
2022/03/14 06:47:48;;;;;;;5.22;4.10;;;10.40;99.90;;;;;;4144957;28;20037;-68
2022/03/14 06:49:48;;;;;;;6.68;4.57;;;10.40;99.90;;;;;;4144153;28;20386;-68
2022/03/14 06:51:49;;;;;;;5.57;4.10;;;10.40;99.90;;;;;;4142371;28;20041;-68
2022/03/14 06:53:50;;;;;;;6.82;4.25;;;10.30;99.90;;;;;;4143053;28;20034;-69
2022/03/14 06:55:50;;;;;;;5.38;3.80;;;10.40;99.90;;;;;;4140710;28;20414;-68
2022/03/14 06:57:51;;;;;;;5.22;3.67;;;10.40;99.90;;;;;;4144562;28;20126;-68
2022/03/14 06:59:52;;;;;;;8.00;4.07;;;10.40;99.90;;;;;;4143888;28;20057;-69
2022/03/14 07:01:52;;;;;;;5.43;4.75;;;10.40;99.90;;;;;;4142837;28;20041;-69
2022/03/14 07:03:53;;;;;;;7.35;4.50;;;10.50;99.90;;;;;;4143922;28;20052;-69
2022/03/14 07:05:54;;;;;;;9.23;4.30;;;10.40;99.90;;;;;;4143474;28;20038;-69
2022/03/14 07:07:55;;;;;;;7.43;4.45;;;10.50;99.90;;;;;;4138562;28;20447;-69
2022/03/14 07:09:55;;;;;;;7.55;4.70;;;10.40;99.90;;;;;;4143747;28;20050;-69
2022/03/14 07:11:56;;;;;;;5.90;4.00;;;10.50;99.90;;;;;;4143272;28;20042;-69
2022/03/14 07:13:57;;;;;;;8.35;4.45;;;10.50;99.90;;;;;;4144807;28;20125;-69
2022/03/14 07:15:57;;;;;;;7.20;4.30;;;10.50;99.90;;;;;;4143898;28;20064;-69
2022/03/14 07:17:58;;;;;;;5.80;3.95;;;10.50;99.90;;;;;;4144059;28;20046;-69
2022/03/14 07:19:58;;;;;;;7.65;4.03;;;10.50;99.90;;;;;;4143862;28;20046;-69
2022/03/14 07:21:59;;;;;;;8.57;4.75;;;10.60;99.90;;;;;;4142872;28;20073;-69
2022/03/14 07:24:00;;;;;;;8.70;3.97;;;10.60;99.90;;;;;;4144302;28;20038;-69
2022/03/14 07:26:00;;;;;;;13.70;5.00;;;10.60;99.90;;;;;;4143325;28;20042;-69
2022/03/14 07:28:04;;;;;;;7.53;5.07;;;10.70;99.90;;;;;;4143884;28;20481;-68
2022/03/14 07:30:05;;;;;;;7.35;4.07;;;10.60;99.90;;;;;;4143252;28;20501;-69
2022/03/14 07:32:06;;;;;;;9.18;4.05;;;10.60;99.90;;;;;;4142778;28;20053;-69
2022/03/14 07:34:07;;;;;;;9.27;4.97;;;10.70;99.90;;;;;;4144228;28;20022;-69
2022/03/14 07:36:07;;;;;;;11.23;5.53;;;10.70;99.90;;;;;;4125638;28;20036;-68
2022/03/14 07:38:10;;;;;;;10.43;4.95;;;10.60;99.90;;;;;;4157881;28;20045;-68
2022/03/14 07:40:11;;;;;;;;;;;10.60;99.90;;;;;;4142703;28;20045;-71
2022/03/14 07:42:12;;;;;;;8.43;4.60;;;10.70;99.90;;;;;;4142273;28;19945;-68
2022/03/14 07:44:13;;;;;;;11.32;4.95;;;10.70;99.90;;;;;;4138865;28;20038;-69
2022/03/14 07:46:13;;;;;;;6.93;4.40;;;10.70;99.90;;;;;;4143661;28;20060;-69
2022/03/14 07:48:14;;;;;;;6.00;3.75;;;10.70;99.90;;;;;;4142069;28;20041;-69
2022/03/14 07:50:16;;;;;;;8.18;4.30;;;10.80;99.90;;;;;;4141990;28;20104;-69
2022/03/14 07:52:18;;;;;;;12.25;5.43;;;10.80;99.90;;;;;;4122022;28;20076;-69
2022/03/14 07:54:20;;;;;;;6.22;4.60;;;10.80;99.90;;;;;;4141961;28;20057;-69
2022/03/14 07:56:21;;;;;;;6.95;4.40;;;10.90;99.90;;;;;;4158830;28;20057;-69
2022/03/14 07:58:22;;;;;;;9.43;4.20;;;10.80;99.90;;;;;;4144095;28;20168;-69
2022/03/14 08:00:22;;;;;;;7.20;4.55;;;10.80;99.90;;;;;;4141074;28;20050;-69
2022/03/14 08:02:23;;;;;;;9.18;4.80;;;10.80;99.90;;;;;;4141718;28;20129;-69
2022/03/14 08:04:23;;;;;;;11.20;5.00;;;10.80;99.90;;;;;;4141484;28;20034;-69
2022/03/14 08:06:24;;;;;;;8.02;4.90;;;10.90;99.90;;;;;;4141121;28;20401;-68
2022/03/14 08:08:25;;;;;;;8.32;4.40;;;10.90;99.90;;;;;;4141533;28;20043;-69
2022/03/14 08:10:26;;;;;;;8.30;4.32;;;11.00;99.90;;;;;;4140579;28;20064;-68
2022/03/14 08:12:26;;;;;;;7.78;4.45;;;10.90;99.90;;;;;;4141996;28;24296;-69
2022/03/14 08:14:27;;;;;;;8.63;4.53;;;11.00;99.90;;;;;;4141757;28;20050;-69
2022/03/14 08:16:28;;;;;;;9.18;4.93;;;10.90;99.90;;;;;;4142272;28;20098;-69
2022/03/14 08:18:28;;;;;;;11.45;4.93;;;11.00;99.90;;;;;;4146855;28;20034;-69
2022/03/14 08:20:29;;;;;;;7.85;4.85;;;11.00;99.90;;;;;;4142168;28;20080;-69
2022/03/14 08:22:30;;;;;;;8.23;4.35;;;11.00;99.90;;;;;;4141874;28;20133;-69
2022/03/14 08:24:30;;;;;;;9.27;4.45;;;11.00;99.90;;;;;;4124926;28;20154;-69
2022/03/14 08:26:33;;;;;;;8.73;4.70;;;11.10;99.90;;;;;;4142049;28;20050;-69
2022/03/14 08:28:34;;;;;;;7.10;4.43;;;11.00;99.90;;;;;;4141799;28;20448;-69
2022/03/14 08:30:35;;;;;;;10.02;4.53;;;11.00;99.90;;;;;;4140772;28;20128;-69
2022/03/14 08:32:39;;;;;;;10.77;4.35;;;11.10;99.90;;;;;;4142417;28;20049;-69
2022/03/14 08:34:40;;;;;;;9.60;5.00;;;11.00;99.90;;;;;;4141007;28;20125;-69
2022/03/14 08:36:41;;;;;;;10.88;4.30;;;11.00;99.90;;;;;;4139806;28;20043;-70
2022/03/14 08:38:41;;;;;;;10.50;4.70;;;11.00;99.90;;;;;;4142188;28;20137;-69
2022/03/14 08:40:42;;;;;;;10.65;4.90;;;11.00;99.90;;;;;;4141502;28;20121;-69
2022/03/14 08:42:44;;;;;;;7.57;4.13;;;11.00;99.90;;;;;;4141026;28;20481;-69
2022/03/14 08:44:45;;;;;;;11.30;3.80;;;11.00;99.90;;;;;;4141214;28;20097;-69
2022/03/14 08:46:45;;;;;;;8.68;4.07;;;11.10;99.90;;;;;;4143135;28;20083;-69
2022/03/14 08:48:46;;;;;;;10.73;4.47;;;11.10;99.90;;;;;;4144021;28;20037;-68
2022/03/14 08:50:46;;;;;;;7.68;4.30;;;11.10;99.90;;;;;;4143438;28;20037;-69
2022/03/14 08:52:47;;;;;;;9.73;4.72;;;11.10;99.90;;;;;;4141893;28;20038;-69
2022/03/14 08:54:48;;;;;;;6.78;3.92;;;11.10;99.90;;;;;;4141814;28;20045;-68
2022/03/14 08:56:48;;;;;;;12.05;3.90;;;11.10;99.90;;;;;;4141643;28;20394;-68
2022/03/14 08:58:49;;;;;;;11.23;4.30;;;11.10;99.90;;;;;;4142984;28;20034;-68
2022/03/14 09:00:49;;;;;;;8.20;3.58;;;11.10;99.90;;;;;;4124295;28;20039;-68
2022/03/14 09:02:51;;;;;;;7.35;4.00;;;11.10;99.90;;;;;;4141331;28;20476;-68
2022/03/14 09:04:51;;;;;;;9.40;4.72;;;11.20;99.90;;;;;;4142444;28;20080;-68
2022/03/14 09:06:52;;;;;;;7.88;4.28;;;11.20;99.90;;;;;;4140176;28;20117;-68
2022/03/14 09:08:52;;;;;;;10.73;4.63;;;11.20;99.90;;;;;;4139649;28;20100;-68
2022/03/14 09:10:53;;;;;;;10.15;4.25;;;11.20;99.90;;;;;;4139879;28;20042;-68
2022/03/14 09:12:55;;;;;;;14.38;5.70;;;11.20;99.90;;;;;;4140326;28;20408;-68
2022/03/14 09:14:56;;;;;;;13.55;4.50;;;11.20;99.90;;;;;;4140544;28;20076;-69
2022/03/14 09:16:58;;;;;;;8.25;4.35;;;11.20;99.90;;;;;;4140267;28;20080;-69
2022/03/14 09:18:59;;;;;;;9.45;4.22;;;11.20;99.90;;;;;;4141462;28;20101;-68
2022/03/14 09:20:59;;;;;;;7.72;4.07;;;11.20;99.90;;;;;;4141038;28;20052;-68
2022/03/14 09:23:00;;;;;;;9.48;4.05;;;11.30;99.90;;;;;;4142883;28;20088;-68
2022/03/14 09:25:00;;;;;;;8.27;3.78;;;11.30;99.90;;;;;;4144297;28;20051;-68
2022/03/14 09:27:01;;;;;;;7.22;3.33;;;11.30;99.90;;;;;;4144410;28;20477;-68
2022/03/14 09:29:02;;;;;;;9.25;3.55;;;11.30;99.90;;;;;;4145714;28;20050;-68
2022/03/14 09:31:03;;;;;;;8.35;3.75;;;11.40;99.90;;;;;;4128151;28;20109;-68
2022/03/14 09:33:04;;;;;;;6.78;3.95;;;11.50;99.90;;;;;;4144736;28;20485;-68
2022/03/14 09:35:06;;;;;;;8.27;3.40;;;11.50;99.90;;;;;;4144540;28;20041;-69
2022/03/14 09:37:07;;;;;;;6.53;3.75;;;11.40;99.90;;;;;;4144751;28;20042;-68
2022/03/14 09:39:13;;;;;;;8.60;3.80;;;11.50;99.90;;;;;;4145731;28;20042;-68
2022/03/14 09:41:17;;;;;;;7.80;3.40;;;11.50;99.90;;;;;;4143606;28;20481;-68
2022/03/14 09:43:19;;;;;;;11.27;4.25;;;11.50;99.90;;;;;;4146279;28;20045;-68
2022/03/14 09:45:20;;;;;;;7.85;3.47;;;11.50;99.90;;;;;;4141655;28;20081;-69
2022/03/14 09:47:24;;;;;;;9.38;3.45;;;11.50;99.90;;;;;;4144229;28;20065;-68
2022/03/14 09:49:27;;;;;;;6.72;3.67;;;11.50;99.90;;;;;;4144798;28;20057;-68
2022/03/14 09:51:28;;;;;;;7.43;3.33;;;11.60;99.90;;;;;;4145037;28;20034;-68
2022/03/14 09:53:29;;;;;;;7.03;3.25;;;11.60;99.90;;;;;;4143600;28;20034;-68
2022/03/14 09:55:30;;;;;;;8.93;4.27;;;11.60;99.90;;;;;;4143088;28;20030;-68
2022/03/14 09:57:31;;;;;;;9.80;3.92;;;11.60;99.90;;;;;;4144896;28;20068;-68
2022/03/14 09:59:36;;;;;;;9.98;4.05;;;11.60;99.90;;;;;;4144084;28;20745;-68
2022/03/14 10:01:36;;;;;;;6.90;3.63;;;11.60;99.90;;;;;;4143635;28;20037;-68
2022/03/14 10:03:37;;;;;;;8.07;3.83;;;11.70;99.90;;;;;;4145209;28;20033;-68
2022/03/14 10:05:38;;;;;;;9.18;4.00;;;11.60;99.90;;;;;;4144864;28;20176;-68
2022/03/14 10:07:40;;;;;;;14.35;4.45;;;11.60;99.90;;;;;;4143470;28;20064;-68
2022/03/14 10:09:43;;;;;;;9.30;3.78;;;11.70;99.90;;;;;;4144997;28;20084;-68
2022/03/14 10:11:44;;;;;;;8.93;3.63;;;11.70;99.90;;;;;;4138694;28;20065;-67
2022/03/14 10:13:44;;;;;;;10.80;3.95;;;11.80;99.90;;;;;;4143723;28;20046;-67
2022/03/14 10:15:45;;;;;;;8.88;4.28;;;11.90;99.90;;;;;;4143131;28;20077;-67
2022/03/14 10:17:46;;;;;;;9.38;4.18;;;12.00;99.90;;;;;;4144755;28;20039;-67
2022/03/14 10:19:54;;;;;;;9.45;4.05;;;12.10;99.90;;;;;;4147235;28;20064;-67
2022/03/14 10:21:55;;;;;;;8.95;4.10;;;12.10;99.90;;;;;;4142058;28;20080;-68
2022/03/14 10:23:59;;;;;;;7.97;4.00;;;12.20;99.90;;;;;;4144955;28;20050;-68
2022/03/14 10:26:00;;;;;;;10.73;4.38;;;12.20;99.90;;;;;;4143072;28;20047;-67
2022/03/14 10:28:02;;;;;;;9.82;3.97;;;12.20;99.90;;;;;;4144804;28;21262;-67
2022/03/14 10:30:04;;;;;;;12.70;5.22;;;12.20;99.90;;;;;;4144346;28;20405;-69
2022/03/14 10:32:28;;;;;;;8.95;4.55;;;12.30;99.90;;;;;;4142698;28;20485;-67